Time;durP1;ratioP1;P1;durP2;ratioP2;P2;SDS_P1;SDS_P2;PMS_P1;PMS_P2;Temp;Humidity;BMP_temperature;BMP_pressure;BME280_temperature;BME280_humidity;BME280_pressure;Samples;Min_cycle;Max_cycle;Signal;HPM_P1;HPM_P2
2022/06/14 00:01:17;;;;;;;8.77;3.35;;;11.80;99.90;;;;;;5009347;28;20053;-78
2022/06/14 00:03:45;;;;;;;10.02;3.10;;;11.80;99.90;;;;;;4993308;28;20046;-77
2022/06/14 00:06:23;;;;;;;10.95;3.42;;;11.70;99.90;;;;;;4993319;28;20046;-79
2022/06/14 00:08:51;;;;;;;7.50;2.95;;;11.80;99.90;;;;;;5009157;28;20099;-79
2022/06/14 00:11:23;;;;;;;8.25;3.30;;;11.70;99.90;;;;;;5009337;28;20033;-78
2022/06/14 00:13:49;;;;;;;9.10;3.50;;;11.70;99.90;;;;;;5009444;28;20096;-78
2022/06/14 00:16:16;;;;;;;9.65;3.80;;;11.70;99.90;;;;;;4992971;28;20033;-79
2022/06/14 00:18:42;;;;;;;12.75;3.40;;;11.70;99.90;;;;;;5009376;28;20044;-78
2022/06/14 00:21:08;;;;;;;8.02;2.92;;;11.80;99.90;;;;;;5009570;28;20405;-79
2022/06/14 00:23:34;;;;;;;7.65;2.90;;;11.70;99.90;;;;;;5008694;28;20038;-79
2022/06/14 00:26:00;;;;;;;9.32;3.58;;;11.80;99.90;;;;;;4993220;28;20041;-79
2022/06/14 00:28:29;;;;;;;10.55;3.47;;;11.70;99.90;;;;;;4992557;28;20103;-77
2022/06/14 00:31:02;;;;;;;10.02;3.25;;;11.70;99.90;;;;;;5008931;28;20042;-78
2022/06/14 00:33:28;;;;;;;10.13;3.72;;;11.80;99.90;;;;;;5008643;28;20038;-79
2022/06/14 00:35:59;;;;;;;8.38;3.67;;;11.80;99.90;;;;;;5008704;28;20387;-79
2022/06/14 00:38:25;;;;;;;10.80;3.42;;;11.80;99.90;;;;;;4976364;28;20045;-78
2022/06/14 00:40:55;;;;;;;10.98;3.55;;;11.70;99.90;;;;;;5008620;28;20410;-78
2022/06/14 00:43:21;;;;;;;13.65;4.55;;;11.90;99.90;;;;;;5008897;28;20117;-79
2022/06/14 00:45:48;;;;;;;9.43;3.80;;;11.80;99.90;;;;;;4992849;28;20046;-79
2022/06/14 00:48:31;;;;;;;13.60;3.50;;;11.80;99.90;;;;;;5009310;28;20057;-79
2022/06/14 00:51:10;;;;;;;10.23;3.45;;;11.90;99.90;;;;;;4992013;28;20037;-79
2022/06/14 00:53:51;;;;;;;9.75;3.20;;;11.90;99.90;;;;;;5008171;28;20487;-79
2022/06/14 00:56:41;;;;;;;9.32;3.95;;;11.90;99.90;;;;;;4991839;28;20137;-79
2022/06/14 00:59:36;;;;;;;12.30;3.67;;;11.90;99.90;;;;;;4983910;28;20057;-78
2022/06/14 01:02:20;;;;;;;12.57;3.88;;;12.00;99.90;;;;;;5007233;28;20111;-79
2022/06/14 01:04:47;;;;;;;14.25;4.05;;;12.00;99.90;;;;;;5008883;28;20045;-79
2022/06/14 01:07:28;;;;;;;10.13;3.42;;;11.90;99.90;;;;;;5008397;28;20053;-78
2022/06/14 01:09:59;;;;;;;11.10;3.80;;;12.00;99.90;;;;;;5005365;28;20036;-78
2022/06/14 01:12:31;;;;;;;9.98;3.45;;;11.90;99.90;;;;;;5008203;28;20046;-78
2022/06/14 01:15:29;;;;;;;10.80;3.60;;;11.90;99.90;;;;;;5008229;28;20037;-79
2022/06/14 01:18:13;;;;;;;11.10;3.60;;;11.90;99.90;;;;;;4986599;28;20525;-78
2022/06/14 01:20:40;;;;;;;13.15;3.50;;;11.80;99.90;;;;;;4991266;28;20441;-78
2022/06/14 01:23:09;;;;;;;9.63;3.50;;;11.80;99.90;;;;;;5015282;28;20038;-79
2022/06/14 01:25:47;;;;;;;14.45;4.10;;;11.80;99.90;;;;;;4991418;28;20061;-77
2022/06/14 01:28:15;;;;;;;11.73;3.65;;;11.80;99.90;;;;;;4992258;28;20501;-78
2022/06/14 01:30:45;;;;;;;8.07;3.38;;;11.70;99.90;;;;;;5008002;28;20436;-78
2022/06/14 01:33:35;;;;;;;8.50;3.50;;;11.70;99.90;;;;;;5008625;28;20045;-78
2022/06/14 01:36:10;;;;;;;11.32;3.47;;;11.70;99.90;;;;;;4991788;28;20458;-78
2022/06/14 01:38:36;;;;;;;12.52;4.00;;;11.60;99.90;;;;;;5007708;28;20124;-78
2022/06/14 01:41:30;;;;;;;10.30;3.60;;;11.70;99.90;;;;;;5008078;28;20135;-78
2022/06/14 01:44:24;;;;;;;7.80;3.90;;;11.60;99.90;;;;;;5006994;28;20042;-78
2022/06/14 01:47:04;;;;;;;10.15;3.40;;;11.60;99.90;;;;;;5007646;28;20045;-78
2022/06/14 01:53:19;;;;;;;8.77;3.85;;;11.50;99.90;;;;;;5007921;28;20394;-78
2022/06/14 01:55:54;;;;;;;9.20;3.58;;;11.50;99.90;;;;;;5007576;28;20045;-78
2022/06/14 01:58:29;;;;;;;11.10;3.75;;;11.40;99.90;;;;;;4991957;28;20073;-79
2022/06/14 02:01:05;;;;;;;16.05;4.22;;;11.30;99.90;;;;;;5007317;28;20414;-79
2022/06/14 02:06:55;;;;;;;12.80;3.55;;;11.20;99.90;;;;;;5005476;28;20308;-78
2022/06/14 02:09:53;;;;;;;9.50;4.10;;;11.10;99.90;;;;;;4991322;28;20490;-77
2022/06/14 02:12:31;;;;;;;12.18;4.53;;;11.10;99.90;;;;;;5008020;28;20034;-78
2022/06/14 02:14:59;;;;;;;8.50;3.83;;;11.00;99.90;;;;;;5014897;28;20128;-79
2022/06/14 02:17:39;;;;;;;11.63;4.45;;;11.00;99.90;;;;;;5007638;28;20401;-78
2022/06/14 02:20:13;;;;;;;11.48;3.72;;;10.90;99.90;;;;;;5014950;28;20042;-78
2022/06/14 02:22:42;;;;;;;7.68;3.85;;;10.90;99.90;;;;;;5010603;28;20465;-78
2022/06/14 02:25:21;;;;;;;9.13;4.13;;;10.90;99.90;;;;;;5011381;28;20092;-78
2022/06/14 02:28:09;;;;;;;9.93;3.90;;;10.90;99.90;;;;;;4994484;28;20046;-78
2022/06/14 02:30:44;;;;;;;11.60;4.20;;;10.80;99.90;;;;;;5011043;28;20401;-79
2022/06/14 02:33:18;;;;;;;9.50;4.20;;;10.80;99.90;;;;;;5011233;28;20053;-78
2022/06/14 02:35:58;;;;;;;9.00;3.72;;;10.70;99.90;;;;;;4994333;28;20045;-77
2022/06/14 02:38:47;;;;;;;12.45;4.40;;;10.60;99.90;;;;;;5010875;28;20064;-78
2022/06/14 02:41:27;;;;;;;10.57;4.35;;;10.70;99.90;;;;;;5010842;28;20050;-79
2022/06/14 02:44:18;;;;;;;12.27;4.47;;;10.70;99.90;;;;;;4994644;28;20037;-79
2022/06/14 02:46:53;;;;;;;11.93;4.38;;;10.60;99.90;;;;;;5010386;28;20188;-78
2022/06/14 02:49:30;;;;;;;9.13;4.53;;;10.60;99.90;;;;;;5011124;28;20042;-80
2022/06/14 02:52:01;;;;;;;10.75;4.63;;;10.60;99.90;;;;;;5010765;28;20107;-79
2022/06/14 02:55:02;;;;;;;12.68;4.85;;;10.60;99.90;;;;;;5010423;28;20421;-78
2022/06/14 02:57:59;;;;;;;11.70;4.68;;;10.60;99.90;;;;;;5002062;28;20038;-78
2022/06/14 03:00:33;;;;;;;13.68;4.80;;;10.50;99.90;;;;;;5007783;28;20054;-79
2022/06/14 03:03:41;;;;;;;12.77;5.22;;;10.50;99.90;;;;;;5010549;28;20489;-79
2022/06/14 03:06:41;;;;;;;13.80;4.65;;;10.40;99.90;;;;;;5006650;28;20046;-79
2022/06/14 03:09:19;;;;;;;12.05;4.78;;;10.40;99.90;;;;;;5010725;28;20042;-78
2022/06/14 03:12:04;;;;;;;10.55;4.68;;;10.30;99.90;;;;;;4993735;28;20464;-79
2022/06/14 03:14:56;;;;;;;13.38;4.65;;;10.30;99.90;;;;;;5009932;28;20121;-77
2022/06/14 03:17:59;;;;;;;13.65;4.82;;;10.20;99.90;;;;;;5010646;28;20076;-79
2022/06/14 03:20:31;;;;;;;13.77;5.30;;;10.20;99.90;;;;;;4994027;28;20034;-79
2022/06/14 03:22:57;;;;;;;9.70;4.80;;;10.20;99.90;;;;;;4993778;28;20073;-78
2022/06/14 03:25:57;;;;;;;13.13;4.43;;;10.20;99.90;;;;;;5010372;28;20069;-78
2022/06/14 03:28:34;;;;;;;11.15;5.00;;;10.20;99.90;;;;;;5010613;28;20490;-78
2022/06/14 03:31:30;;;;;;;14.32;4.95;;;10.30;99.90;;;;;;5009923;28;20049;-78
2022/06/14 03:34:10;;;;;;;11.77;4.80;;;10.30;99.90;;;;;;4992362;28;20034;-79
2022/06/14 03:36:36;;;;;;;11.65;5.25;;;10.30;99.90;;;;;;5009813;28;20038;-79
2022/06/14 03:39:22;;;;;;;9.90;4.20;;;10.40;99.90;;;;;;5011222;28;20060;-79
2022/06/14 03:41:51;;;;;;;9.43;4.50;;;10.30;99.90;;;;;;5009925;28;20042;-79
2022/06/14 03:44:18;;;;;;;11.73;4.53;;;10.30;99.90;;;;;;5009897;28;20095;-79
2022/06/14 03:47:10;;;;;;;12.80;4.97;;;10.30;99.90;;;;;;5009507;28;20113;-79
2022/06/14 03:50:03;;;;;;;9.88;5.10;;;10.40;99.90;;;;;;5006204;28;20046;-79
2022/06/14 03:53:13;;;;;;;13.25;5.50;;;10.40;99.90;;;;;;4991398;28;20480;-78
2022/06/14 03:55:59;;;;;;;9.38;4.57;;;10.30;99.90;;;;;;4970767;28;20042;-79
2022/06/14 03:58:40;;;;;;;11.93;4.32;;;10.40;99.90;;;;;;4982590;28;20533;-77
2022/06/14 04:01:16;;;;;;;13.60;4.90;;;10.30;99.90;;;;;;4997379;28;20129;-78
2022/06/14 04:04:06;;;;;;;13.63;5.68;;;10.30;99.90;;;;;;5009468;28;20456;-78
2022/06/14 04:06:43;;;;;;;9.32;4.80;;;10.30;99.90;;;;;;5009142;28;20045;-79
2022/06/14 04:09:09;;;;;;;13.02;4.55;;;10.30;99.90;;;;;;5009968;28;20038;-77
2022/06/14 04:11:43;;;;;;;13.70;5.07;;;10.30;99.90;;;;;;5009621;28;20041;-78
2022/06/14 04:14:41;;;;;;;12.85;5.22;;;10.40;99.90;;;;;;5009733;28;20034;-79
2022/06/14 04:17:16;;;;;;;;;;;10.40;99.90;;;;;;5004842;28;20184;-79
2022/06/14 04:20:00;;;;;;;14.60;4.75;;;10.40;99.90;;;;;;5009158;28;20636;-80
2022/06/14 04:22:41;;;;;;;12.13;4.65;;;10.40;99.90;;;;;;5009782;28;20087;-80
2022/06/14 04:25:15;;;;;;;12.15;5.25;;;10.40;99.90;;;;;;5009482;28;20045;-79
2022/06/14 04:28:06;;;;;;;10.60;4.90;;;10.50;99.90;;;;;;5009256;28;20078;-79
2022/06/14 04:30:50;;;;;;;11.07;5.32;;;10.50;99.90;;;;;;4993327;28;20034;-80
2022/06/14 04:33:19;;;;;;;11.18;4.65;;;10.50;99.90;;;;;;5008892;28;21398;-80
2022/06/14 04:35:56;;;;;;;12.88;4.60;;;10.50;99.90;;;;;;5008874;28;20125;-80
2022/06/14 04:38:31;;;;;;;13.35;4.97;;;10.60;99.90;;;;;;5007445;28;20052;-81
2022/06/14 04:41:07;;;;;;;12.18;4.88;;;10.60;99.90;;;;;;5007191;28;20100;-79
2022/06/14 04:43:43;;;;;;;9.13;4.78;;;10.70;99.90;;;;;;4992375;28;20037;-81
2022/06/14 04:46:16;;;;;;;12.30;5.20;;;10.80;99.90;;;;;;5008961;28;20088;-80
2022/06/14 04:48:55;;;;;;;13.15;4.82;;;10.80;99.90;;;;;;5008887;28;20038;-80
2022/06/14 04:51:29;;;;;;;10.38;4.30;;;10.90;99.90;;;;;;5009199;28;20505;-80
2022/06/14 04:54:26;;;;;;;9.73;4.50;;;11.00;99.90;;;;;;4991683;28;20041;-78
2022/06/14 04:57:02;;;;;;;13.27;4.70;;;11.00;99.90;;;;;;5005980;28;20136;-79
2022/06/14 04:59:40;;;;;;;12.35;4.55;;;11.10;99.90;;;;;;5009620;28;20517;-78
2022/06/14 05:02:21;;;;;;;13.38;4.70;;;11.10;99.90;;;;;;5012958;28;20062;-78
2022/06/14 05:04:54;;;;;;;12.20;4.68;;;11.20;99.90;;;;;;5007015;28;20379;-79
2022/06/14 05:07:39;;;;;;;11.57;4.35;;;11.20;99.90;;;;;;5009418;28;20073;-80
2022/06/14 05:10:11;;;;;;;12.63;4.70;;;11.20;99.90;;;;;;5009448;28;20026;-78
2022/06/14 05:13:08;;;;;;;12.90;4.75;;;11.30;99.90;;;;;;5008735;28;20116;-78
2022/06/14 05:16:08;;;;;;;12.98;5.63;;;11.30;99.90;;;;;;4992591;28;20081;-79
2022/06/14 05:18:41;;;;;;;9.02;4.80;;;11.40;99.90;;;;;;5009274;28;20037;-79
2022/06/14 05:21:13;;;;;;;12.35;4.70;;;11.40;99.90;;;;;;5009124;28;20058;-78
2022/06/14 05:23:49;;;;;;;11.88;4.75;;;11.50;99.90;;;;;;5012498;28;20029;-80
2022/06/14 05:26:38;;;;;;;11.32;5.18;;;11.60;99.90;;;;;;5008991;28;20048;-79
2022/06/14 05:29:25;;;;;;;9.77;5.05;;;11.70;99.90;;;;;;5009265;28;20042;-79
2022/06/14 05:32:00;;;;;;;7.45;4.55;;;11.80;99.90;;;;;;5008923;28;20505;-79
2022/06/14 05:35:03;;;;;;;9.82;4.57;;;12.00;99.90;;;;;;5009444;28;20046;-78
2022/06/14 05:37:53;;;;;;;11.07;5.22;;;12.20;99.90;;;;;;5009533;28;20033;-79
2022/06/14 05:40:31;;;;;;;11.00;4.28;;;12.30;99.90;;;;;;4989897;28;20049;-79
2022/06/14 05:43:18;;;;;;;11.27;4.57;;;12.40;99.90;;;;;;5008390;28;20041;-79
2022/06/14 05:45:49;;;;;;;9.27;3.80;;;12.60;99.90;;;;;;5008357;28;20040;-79
2022/06/14 05:48:31;;;;;;;10.45;4.07;;;12.60;99.90;;;;;;5008997;28;20033;-79
2022/06/14 05:50:59;;;;;;;9.48;3.60;;;12.70;99.90;;;;;;4989895;28;20125;-80
2022/06/14 05:53:29;;;;;;;9.00;3.70;;;12.90;99.90;;;;;;5010545;28;20153;-79
2022/06/14 05:56:31;;;;;;;8.57;3.60;;;13.00;99.90;;;;;;5011653;28;20075;-80
2022/06/14 05:59:14;;;;;;;8.57;3.58;;;13.20;99.90;;;;;;5012982;28;20069;-79
2022/06/14 06:01:50;;;;;;;9.40;3.75;;;13.40;99.90;;;;;;5012585;28;20060;-79
2022/06/14 06:04:41;;;;;;;8.73;3.60;;;13.50;99.90;;;;;;5014498;28;20038;-80
2022/06/14 06:07:11;;;;;;;11.82;3.63;;;13.80;99.90;;;;;;5012877;28;20096;-80
2022/06/14 06:09:43;;;;;;;7.95;2.72;;;14.50;99.90;;;;;;5016191;28;20470;-78
2022/06/14 06:12:26;;;;;;;8.98;3.10;;;15.00;99.90;;;;;;5012782;28;20049;-78
2022/06/14 06:15:02;;;;;;;8.05;2.60;;;15.30;99.90;;;;;;5012367;28;20398;-79
2022/06/14 06:17:33;;;;;;;8.43;2.85;;;15.60;99.90;;;;;;5014355;28;20128;-79
2022/06/14 06:20:26;;;;;;;6.88;2.95;;;16.10;99.90;;;;;;4999395;28;20364;-80
2022/06/14 06:23:46;;;;;;;5.78;2.67;;;16.50;99.90;;;;;;5012178;28;20041;-80
2022/06/14 06:26:14;;;;;;;8.10;2.40;;;16.80;99.90;;;;;;4984204;28;20051;-79
2022/06/14 06:28:54;;;;;;;6.70;1.80;;;17.10;99.90;;;;;;5005038;28;20176;-79
2022/06/14 06:31:31;;;;;;;8.82;1.88;;;17.40;99.90;;;;;;5013405;28;20075;-79
2022/06/14 06:34:00;;;;;;;7.03;1.88;;;17.30;99.90;;;;;;5011807;28;20117;-79
2022/06/14 06:36:55;;;;;;;8.18;2.28;;;17.50;99.90;;;;;;5012386;28;20085;-79
2022/06/14 06:39:27;;;;;;;6.32;2.05;;;17.70;99.90;;;;;;5008402;28;20108;-80
2022/06/14 06:42:00;;;;;;;6.40;2.40;;;17.90;99.90;;;;;;5012175;28;20394;-79
2022/06/14 06:44:56;;;;;;;6.13;2.00;;;18.30;99.90;;;;;;5012242;28;20045;-79
2022/06/14 06:47:49;;;;;;;9.15;1.52;;;18.40;99.90;;;;;;5004712;28;20049;-79
2022/06/14 06:50:34;;;;;;;5.00;1.70;;;18.60;99.90;;;;;;5009642;28;20038;-79
2022/06/14 06:53:09;;;;;;;5.70;1.40;;;18.60;99.90;;;;;;5012291;28;20058;-79
2022/06/14 06:55:53;;;;;;;5.43;1.40;;;18.60;99.90;;;;;;5013303;28;20030;-79
2022/06/14 06:58:23;;;;;;;7.13;1.50;;;18.60;99.90;;;;;;5011789;28;20123;-79
2022/06/14 07:00:51;;;;;;;6.05;1.27;;;18.50;99.90;;;;;;5011281;28;20049;-79
2022/06/14 07:03:36;;;;;;;5.70;1.17;;;18.70;99.90;;;;;;5011679;28;20074;-79
2022/06/14 07:06:05;;;;;;;4.18;1.23;;;18.80;99.90;;;;;;5012528;28;20057;-79
2022/06/14 07:08:55;;;;;;;5.90;1.17;;;18.90;99.90;;;;;;5010650;28;20517;-79
2022/06/14 07:11:26;;;;;;;5.85;1.08;;;19.10;99.90;;;;;;5011709;28;20045;-79
2022/06/14 07:13:56;;;;;;;5.80;1.20;;;19.20;99.90;;;;;;5010879;28;20045;-79
2022/06/14 07:16:35;;;;;;;5.35;1.10;;;19.00;99.90;;;;;;5011789;28;20046;-79
2022/06/14 07:19:26;;;;;;;6.60;1.20;;;18.90;99.90;;;;;;5010865;28;20340;-79
2022/06/14 07:21:57;;;;;;;5.47;1.20;;;18.80;99.90;;;;;;5009081;28;20045;-79
2022/06/14 07:24:29;;;;;;;5.43;1.40;;;18.90;99.90;;;;;;5011475;28;20049;-78
2022/06/14 07:27:08;;;;;;;4.03;1.23;;;19.00;99.90;;;;;;4994250;28;20049;-78
2022/06/14 07:29:43;;;;;;;7.13;1.13;;;19.00;99.90;;;;;;5011765;28;20042;-78
2022/06/14 07:32:16;;;;;;;5.78;1.20;;;19.10;99.90;;;;;;5011871;28;20483;-79
2022/06/14 07:34:44;;;;;;;6.78;1.20;;;19.10;99.90;;;;;;4994503;28;20044;-78
2022/06/14 07:37:25;;;;;;;4.93;1.13;;;19.20;99.90;;;;;;5011368;28;20042;-79
2022/06/14 07:40:06;;;;;;;3.65;0.85;;;19.30;99.90;;;;;;5010370;28;20034;-78
2022/06/14 07:42:49;;;;;;;3.88;1.02;;;19.20;99.90;;;;;;5010958;28;20046;-79
2022/06/14 07:45:21;;;;;;;6.20;0.98;;;19.20;99.90;;;;;;5012763;28;20042;-79
2022/06/14 07:47:49;;;;;;;4.35;1.20;;;19.30;99.90;;;;;;5010236;28;20413;-79
2022/06/14 07:50:22;;;;;;;4.90;1.05;;;19.40;99.90;;;;;;5010805;28;20053;-79
2022/06/14 07:52:54;;;;;;;4.10;1.30;;;19.70;99.90;;;;;;5010067;28;20167;-78
2022/06/14 07:55:27;;;;;;;7.18;1.40;;;20.10;99.90;;;;;;5010954;28;20402;-79
2022/06/14 07:58:03;;;;;;;4.50;1.25;;;20.50;99.90;;;;;;5010389;28;20038;-80
2022/06/14 08:03:36;;;;;;;3.42;0.82;;;20.80;99.90;;;;;;5010892;28;20121;-79
2022/06/14 08:06:10;;;;;;;3.10;0.85;;;21.00;99.90;;;;;;5010172;28;20057;-80
2022/06/14 08:08:39;;;;;;;5.57;0.88;;;21.10;99.90;;;;;;5008861;28;20113;-79
2022/06/14 08:11:11;;;;;;;5.15;0.95;;;21.30;99.90;;;;;;5009897;28;20068;-79
2022/06/14 08:13:47;;;;;;;3.60;0.70;;;21.70;99.90;;;;;;5010567;28;20050;-80
2022/06/14 08:16:13;;;;;;;;;;;21.80;99.90;;;;;;5011011;28;20129;-80
2022/06/14 08:18:52;;;;;;;6.00;1.10;;;21.80;99.90;;;;;;4993820;28;20011;-80
2022/06/14 08:21:27;;;;;;;3.45;1.00;;;21.90;99.90;;;;;;5010411;28;20045;-80
2022/06/14 08:24:04;;;;;;;3.88;0.75;;;22.20;99.90;;;;;;5009808;28;20038;-79
2022/06/14 08:26:40;;;;;;;4.80;0.75;;;22.40;99.90;;;;;;5012337;28;20414;-80
2022/06/14 08:29:17;;;;;;;4.95;0.80;;;22.80;99.90;;;;;;5009799;28;20045;-80
2022/06/14 08:31:56;;;;;;;3.55;0.80;;;22.80;99.90;;;;;;5010388;28;20044;-79
2022/06/14 08:34:45;;;;;;;3.80;0.85;;;22.50;99.90;;;;;;5010741;28;20431;-79
2022/06/14 08:37:20;;;;;;;2.60;0.80;;;22.30;99.90;;;;;;5002554;28;20049;-79
2022/06/14 08:39:50;;;;;;;2.47;0.80;;;22.60;99.90;;;;;;5009955;28;20100;-79
2022/06/14 08:42:24;;;;;;;2.60;0.70;;;23.20;99.90;;;;;;5010222;28;20092;-80
2022/06/14 08:44:58;;;;;;;4.10;0.90;;;23.10;99.90;;;;;;5009484;28;20095;-79
2022/06/14 08:47:35;;;;;;;6.38;1.00;;;22.70;99.90;;;;;;5009510;28;20038;-80
2022/06/14 08:50:27;;;;;;;2.50;0.85;;;22.30;99.90;;;;;;5009258;28;20038;-77
2022/06/14 08:53:24;;;;;;;3.88;0.60;;;21.70;99.90;;;;;;5010273;28;20038;-78
2022/06/14 08:56:06;;;;;;;3.13;0.80;;;21.30;99.90;;;;;;5006626;28;20046;-79
2022/06/14 08:58:47;;;;;;;2.83;0.63;;;21.20;99.90;;;;;;5010577;28;20052;-79
2022/06/14 09:01:35;;;;;;;3.58;0.80;;;21.00;99.90;;;;;;5009925;28;20046;-79
2022/06/14 09:04:18;;;;;;;1.67;0.60;;;21.10;99.90;;;;;;4992630;28;20371;-79
2022/06/14 09:07:02;;;;;;;2.88;0.70;;;21.20;99.90;;;;;;5009298;28;20073;-80
2022/06/14 09:09:46;;;;;;;2.72;0.70;;;21.30;99.90;;;;;;5009489;28;20044;-78
2022/06/14 09:12:34;;;;;;;2.33;0.57;;;21.70;99.80;;;;;;5009346;28;20397;-79
2022/06/14 09:15:28;;;;;;;2.03;0.60;;;22.30;99.20;;;;;;5008770;28;20069;-79
2022/06/14 09:18:06;;;;;;;2.40;0.80;;;22.70;99.90;;;;;;5008851;28;20494;-78
2022/06/14 09:20:47;;;;;;;3.90;0.93;;;23.00;99.90;;;;;;5009317;28;20080;-79
2022/06/14 09:23:35;;;;;;;3.13;0.68;;;22.90;99.90;;;;;;4992637;28;20128;-79
2022/06/14 09:26:19;;;;;;;2.35;0.60;;;22.70;99.90;;;;;;5006649;28;20053;-78
2022/06/14 09:29:07;;;;;;;2.20;0.70;;;22.30;99.90;;;;;;5009133;28;20041;-78
2022/06/14 09:31:38;;;;;;;3.20;0.80;;;22.10;99.90;;;;;;5009972;28;20038;-80
2022/06/14 09:34:19;;;;;;;3.90;1.00;;;22.10;99.90;;;;;;5008315;28;20164;-79
2022/06/14 09:37:25;;;;;;;2.90;0.70;;;22.60;99.90;;;;;;4992997;28;20046;-78
2022/06/14 09:40:10;;;;;;;3.03;0.80;;;23.20;99.80;;;;;;5008322;28;20037;-78
2022/06/14 09:43:24;;;;;;;2.60;0.60;;;23.20;99.90;;;;;;5008749;28;20151;-80
2022/06/14 09:46:11;;;;;;;5.43;1.13;;;23.70;99.40;;;;;;4960086;28;20049;-79
2022/06/14 09:48:58;;;;;;;3.88;0.80;;;23.40;99.20;;;;;;4992604;28;20037;-78
2022/06/14 09:51:58;;;;;;;2.25;0.73;;;23.40;98.70;;;;;;4992461;28;20046;-78
2022/06/14 09:54:43;;;;;;;2.85;0.70;;;24.00;98.10;;;;;;5008920;28;20046;-80
2022/06/14 09:57:17;;;;;;;2.03;0.70;;;24.20;98.30;;;;;;5008734;28;20313;-79
2022/06/14 10:00:06;;;;;;;3.45;0.50;;;24.30;98.10;;;;;;4991896;28;20049;-79
2022/06/14 10:03:04;;;;;;;3.95;0.57;;;24.00;98.10;;;;;;4990450;28;20060;-79
2022/06/14 10:05:29;;;;;;;;;;;23.80;97.80;;;;;;5009173;28;20046;-79
2022/06/14 10:08:30;;;;;;;3.13;0.70;;;23.80;97.90;;;;;;5008061;28;19927;-80
2022/06/14 10:11:14;;;;;;;2.97;0.60;;;24.00;98.20;;;;;;4993024;28;20049;-79
2022/06/14 10:14:01;;;;;;;2.03;0.60;;;24.00;97.20;;;;;;5008556;28;20062;-79
2022/06/14 10:16:58;;;;;;;4.80;0.65;;;23.90;97.90;;;;;;5008541;28;20046;-79
2022/06/14 10:19:30;;;;;;;3.70;0.77;;;23.60;97.60;;;;;;5008805;28;20499;-79
2022/06/14 10:22:16;;;;;;;2.03;0.60;;;23.40;98.20;;;;;;5007975;28;20045;-80
2022/06/14 10:25:14;;;;;;;3.33;0.85;;;23.20;98.90;;;;;;5008332;28;20096;-79
2022/06/14 10:28:32;;;;;;;1.55;0.80;;;22.80;99.90;;;;;;4992034;28;20129;-80
2022/06/14 10:31:09;;;;;;;2.75;0.80;;;22.80;99.50;;;;;;4967222;28;20121;-79
2022/06/14 10:33:54;;;;;;;4.32;1.02;;;22.80;99.60;;;;;;4985854;28;20057;-78
2022/06/14 10:36:35;;;;;;;2.53;0.90;;;22.60;99.90;;;;;;5008295;28;20073;-78
2022/06/14 10:39:34;;;;;;;3.33;1.05;;;22.50;99.80;;;;;;5007806;28;20136;-79
2022/06/14 10:42:37;;;;;;;2.53;1.00;;;22.30;99.90;;;;;;4991836;28;20115;-79
2022/06/14 10:45:44;;;;;;;3.00;1.00;;;22.10;99.70;;;;;;4995037;28;20049;-79
2022/06/14 10:48:21;;;;;;;2.92;0.90;;;22.00;99.90;;;;;;4996365;28;20112;-79
2022/06/14 10:50:56;;;;;;;3.80;0.77;;;21.90;99.90;;;;;;4995344;28;20045;-79
2022/06/14 10:53:54;;;;;;;4.40;1.02;;;21.70;99.90;;;;;;4995449;28;20041;-79
2022/06/14 10:56:38;;;;;;;;;;;21.50;99.90;;;;;;5012181;28;20498;-79
2022/06/14 10:59:34;;;;;;;4.43;1.20;;;21.30;99.90;;;;;;5011700;28;20302;-78
2022/06/14 11:02:12;;;;;;;4.28;1.33;;;20.90;99.90;;;;;;5014318;28;20058;-79
2022/06/14 11:05:01;;;;;;;5.75;1.48;;;20.60;99.90;;;;;;5013667;28;20042;-79
2022/06/14 11:08:09;;;;;;;3.80;1.35;;;20.40;99.90;;;;;;5009807;28;20069;-79
2022/06/14 11:10:55;;;;;;;4.38;1.40;;;20.30;99.90;;;;;;5011351;28;20034;-78
2022/06/14 11:13:48;;;;;;;3.60;1.23;;;20.20;99.90;;;;;;5011215;28;20038;-78
2022/06/14 11:16:52;;;;;;;3.95;1.42;;;20.10;99.90;;;;;;5012821;28;20281;-79
2022/06/14 11:19:45;;;;;;;4.55;1.35;;;20.20;99.90;;;;;;4973617;28;20046;-79
2022/06/14 11:22:35;;;;;;;5.43;1.48;;;20.20;99.90;;;;;;5010643;28;20054;-79
2022/06/14 11:25:22;;;;;;;4.90;1.55;;;20.30;99.90;;;;;;5010446;28;20049;-79
2022/06/14 11:27:58;;;;;;;7.23;1.63;;;20.30;99.90;;;;;;5010821;28;20152;-78
2022/06/14 11:30:27;;;;;;;3.20;1.40;;;20.40;99.90;;;;;;5011156;28;20112;-78
2022/06/14 11:33:17;;;;;;;3.42;1.35;;;20.50;99.90;;;;;;5011371;28;20034;-79
2022/06/14 11:36:17;;;;;;;5.43;1.80;;;20.60;99.90;;;;;;5012110;28;20030;-78
2022/06/14 11:39:24;;;;;;;4.82;1.70;;;20.80;99.90;;;;;;5011257;28;20117;-83
2022/06/14 11:41:51;;;;;;;4.43;1.55;;;21.00;99.90;;;;;;4974667;28;20062;-81
2022/06/14 11:44:29;;;;;;;5.20;1.70;;;21.20;99.90;;;;;;4974142;28;20042;-81
2022/06/14 11:46:59;;;;;;;5.82;1.50;;;21.30;99.90;;;;;;4993410;28;20502;-82
2022/06/14 11:49:45;;;;;;;4.10;1.60;;;21.40;99.90;;;;;;5009040;28;20037;-82
2022/06/14 11:52:36;;;;;;;4.45;1.75;;;21.50;99.90;;;;;;5010651;28;20057;-81
2022/06/14 11:55:26;;;;;;;4.75;1.52;;;21.70;99.90;;;;;;5009656;28;20100;-83
2022/06/14 11:58:15;;;;;;;3.15;1.30;;;21.80;99.90;;;;;;5010958;28;20051;-81
2022/06/14 12:00:43;;;;;;;3.03;1.58;;;21.70;99.90;;;;;;5010047;28;20107;-82
2022/06/14 12:03:48;;;;;;;3.90;1.20;;;21.60;99.90;;;;;;5010464;28;20045;-81
2022/06/14 12:06:25;;;;;;;4.25;1.23;;;21.90;99.90;;;;;;5004687;28;20066;-82
2022/06/14 12:09:07;;;;;;;;;;;21.90;99.90;;;;;;5010009;28;20073;-81
2022/06/14 12:11:44;;;;;;;4.32;1.27;;;22.10;99.90;;;;;;5010428;28;19918;-81
2022/06/14 12:14:25;;;;;;;3.05;1.15;;;22.50;99.70;;;;;;5010391;28;20462;-81
2022/06/14 12:17:02;;;;;;;3.80;1.20;;;22.90;99.90;;;;;;5009943;28;20046;-81
2022/06/14 12:19:33;;;;;;;5.18;1.10;;;23.10;99.90;;;;;;5010271;28;20061;-81
2022/06/14 12:22:41;;;;;;;3.28;1.20;;;23.10;99.90;;;;;;4993984;28;20052;-81
2022/06/14 12:28:17;;;;;;;2.17;1.00;;;23.00;99.80;;;;;;5009710;28;20053;-81
2022/06/14 12:30:44;;;;;;;2.78;1.00;;;22.90;99.90;;;;;;5012890;28;20049;-81
2022/06/14 12:33:34;;;;;;;4.50;1.10;;;22.90;99.90;;;;;;4994001;28;20097;-80
2022/06/14 12:36:18;;;;;;;3.08;1.20;;;22.90;99.70;;;;;;4992297;28;20053;-81
2022/06/14 12:38:47;;;;;;;3.45;0.90;;;22.70;99.90;;;;;;5010100;28;20045;-81
2022/06/14 12:41:15;;;;;;;3.33;1.20;;;22.80;99.70;;;;;;5007936;28;20042;-81
2022/06/14 12:44:02;;;;;;;4.18;1.30;;;22.80;99.90;;;;;;4996472;28;20037;-81
2022/06/14 12:46:32;;;;;;;2.55;1.48;;;22.90;99.90;;;;;;5008190;28;20401;-81
2022/06/14 12:49:09;;;;;;;3.65;1.08;;;22.80;99.90;;;;;;5010029;28;20081;-81
2022/06/14 12:51:41;;;;;;;3.60;1.45;;;22.80;99.90;;;;;;5010232;28;20458;-81
2022/06/14 12:54:36;;;;;;;4.25;1.30;;;22.80;99.90;;;;;;5009460;28;20046;-81
2022/06/14 12:57:13;;;;;;;3.65;1.23;;;22.70;99.80;;;;;;5009469;28;20128;-81
2022/06/14 12:59:44;;;;;;;;;;;22.60;99.70;;;;;;5010109;28;20048;-81
2022/06/14 13:02:42;;;;;;;2.53;0.90;;;22.50;99.70;;;;;;5009305;28;19929;-80
2022/06/14 13:05:14;;;;;;;3.20;0.98;;;22.50;99.90;;;;;;5007004;28;20048;-81
2022/06/14 13:08:22;;;;;;;4.32;1.00;;;22.60;99.90;;;;;;5010821;28;20164;-80
2022/06/14 13:11:20;;;;;;;4.07;1.08;;;22.70;99.90;;;;;;5010503;28;20266;-81
2022/06/14 13:13:58;;;;;;;2.97;1.27;;;22.80;99.60;;;;;;5009832;28;20116;-80
2022/06/14 13:16:23;;;;;;;3.65;1.10;;;22.70;99.40;;;;;;5012694;28;20440;-81
2022/06/14 13:18:49;;;;;;;;;;;22.80;99.50;;;;;;5010133;28;20046;-81
2022/06/14 13:21:32;;;;;;;4.50;1.50;;;22.70;99.70;;;;;;5009511;28;19924;-81
2022/06/14 13:23:58;;;;;;;3.35;1.05;;;22.90;99.70;;;;;;5009714;28;20041;-81
2022/06/14 13:26:30;;;;;;;;;;;22.90;99.90;;;;;;4993108;28;20056;-81
2022/06/14 13:29:12;;;;;;;3.88;1.30;;;22.90;99.70;;;;;;5009468;28;20068;-82
2022/06/14 13:32:05;;;;;;;3.08;1.20;;;22.90;99.20;;;;;;4993254;28;20068;-82
2022/06/14 13:35:06;;;;;;;3.30;1.30;;;22.80;99.90;;;;;;5009698;28;20043;-80
2022/06/14 13:38:15;;;;;;;3.17;1.13;;;22.70;99.20;;;;;;4990478;28;20054;-81
2022/06/14 13:41:08;;;;;;;3.22;1.00;;;22.50;99.30;;;;;;4953177;28;20133;-80
2022/06/14 13:43:50;;;;;;;3.13;1.10;;;22.60;99.90;;;;;;5009601;28;20038;-81
2022/06/14 13:46:33;;;;;;;3.85;1.13;;;22.70;99.90;;;;;;4992801;28;20044;-81
2022/06/14 13:49:15;;;;;;;3.63;1.20;;;22.60;99.70;;;;;;5007316;28;20505;-81
2022/06/14 13:52:01;;;;;;;4.03;1.10;;;22.80;99.70;;;;;;4992953;28;20049;-81
2022/06/14 13:54:46;;;;;;;4.75;1.05;;;22.90;99.20;;;;;;5008824;28;20042;-81
2022/06/14 13:57:29;;;;;;;4.10;1.17;;;22.90;99.40;;;;;;5008879;28;20053;-81
2022/06/14 14:00:13;;;;;;;4.68;1.20;;;23.00;99.90;;;;;;5008615;28;20042;-80
2022/06/14 14:02:48;;;;;;;5.00;1.58;;;23.00;99.90;;;;;;5009373;28;20084;-81
2022/06/14 14:05:33;;;;;;;4.53;1.50;;;23.00;99.90;;;;;;4993349;28;20038;-81
2022/06/14 14:08:23;;;;;;;3.90;1.50;;;22.90;99.70;;;;;;5008612;28;20086;-80
2022/06/14 14:11:11;;;;;;;4.15;1.70;;;22.80;99.90;;;;;;5007908;28;20034;-81